<-- eyeonlakeo.com   Last Update           Next Autoupdate ---------------- Click for other years ----------------
  9/26/2020 10:49 AM           9/21/2020 9:55 PM 2020 2019 2018 2017 2016
 
20200101 20201231                            
Lake and C-44 Basin Discharges
1/1/2020 to 9/26/2020
                         
                                 
                                 
                                 
                                 
                                 
                                 
                                 
                                 
                                 
                                 
                                 
                                 
                                 
                                 
                                 
                                 
                                 
                                 
                                 
                                 
                                 
                                 
                                 
                                 
                                 
                                 
                                 
                                 
                                 
                                 
                                 
                                 
                                 
                                 
                                 
                                 
                                 
                                 
                                 
                                 
                                 
                                 
                                 
                                 
                                 
                                 
                                 
  Cubic Feet Per Second (cfs) Acre-Feet (ft) (ft) (in)
  S80_S S308_S
Daily
S308_S to C-44 S308_S to Lake Basin Flow
 [S-80] - [S-308 to C-44]
Lake Flow
 [S-80] - Basin Flow
S80_S S308_S
Daily
S308_S to C-44 S308_S to Lake Basin Flow
 [S-80] - [S-308 to C-44]
Lake Flow
 [S-80] - Basin Flow
 S-308
Cumulative
Lake Stage
N3466
Mean C-44 Stage at S-80H Rain at C44B5A_R
Date DJ238 DJ239         DJ238 DJ239                
1/1/2020 0.00 -205.00 0.00 205.00 0.00 0.00 0.00 -406.61 0.00 406.61 0.00 0.00 -406.61 13.15 13.29 0.00
1/2/2020 0.00 31.00 31.00 0.00 0.00 0.00 0.00 61.49 61.49 0.00 0.00 0.00 -345.12 13.16 13.21 0.00
1/3/2020 0.00 177.00 177.00 0.00 0.00 0.00 0.00 351.08 351.08 0.00 0.00 0.00 5.95 13.17 13.24 0.00
1/4/2020 0.00 -420.00 0.00 420.00 0.00 0.00 0.00 -833.06 0.00 833.06 0.00 0.00 -827.11 13.15 13.52 0.02
1/5/2020 0.00 391.00 391.00 0.00 0.00 0.00 0.00 775.54 775.54 0.00 0.00 0.00 -51.57 13.10 13.15 0.00
1/6/2020 0.00 530.00 530.00 0.00 0.00 0.00 0.00 1,051.24 1,051.24 0.00 0.00 0.00 999.67 13.11 13.13 0.00
1/7/2020 0.00 429.00 429.00 0.00 0.00 0.00 0.00 850.91 850.91 0.00 0.00 0.00 1,850.58 13.09 13.19 0.00
1/8/2020 0.00 746.00 746.00 0.00 0.00 0.00 0.00 1,479.67 1,479.67 0.00 0.00 0.00 3,330.26 13.06 13.03 0.00
1/9/2020 0.00 946.00 946.00 0.00 0.00 0.00 0.00 1,876.37 1,876.37 0.00 0.00 0.00 5,206.62 13.08 12.80 0.00
1/10/2020 0.00 472.00 472.00 0.00 0.00 0.00 0.00 936.20 936.20 0.00 0.00 0.00 6,142.82 13.07 12.85 0.00
1/11/2020 0.00 413.00 413.00 0.00 0.00 0.00 0.00 819.18 819.18 0.00 0.00 0.00 6,962.00 13.07 13.00 0.02
1/12/2020 0.00 339.00 339.00 0.00 0.00 0.00 0.00 672.40 672.40 0.00 0.00 0.00 7,634.40 13.07 13.03 0.01
1/13/2020 0.00 698.00 698.00 0.00 0.00 0.00 0.00 1,384.47 1,384.47 0.00 0.00 0.00 9,018.86 13.06 13.00 0.00
1/14/2020 0.00 644.00 644.00 0.00 0.00 0.00 0.00 1,277.36 1,277.36 0.00 0.00 0.00 10,296.22 13.05 13.05 0.07
1/15/2020 0.00 666.00 666.00 0.00 0.00 0.00 0.00 1,320.99 1,320.99 0.00 0.00 0.00 11,617.22 13.04 13.04 0.00
1/16/2020 0.00 589.00 589.00 0.00 0.00 0.00 0.00 1,168.27 1,168.27 0.00 0.00 0.00 12,785.48 13.02 13.05 0.00
1/17/2020 0.00 1,410.00 1,410.00 0.00 0.00 0.00 0.00 2,796.70 2,796.70 0.00 0.00 0.00 15,582.18 13.02 12.66 0.00
1/18/2020 0.00 338.00 338.00 0.00 0.00 0.00 0.00 670.41 670.41 0.00 0.00 0.00 16,252.60 12.99 12.83 0.00
1/19/2020 0.00 -484.00 0.00 484.00 0.00 0.00 0.00 -960.00 0.00 960.00 0.00 0.00 15,292.60 12.97 13.04 0.00
1/20/2020 0.00 362.00 362.00 0.00 0.00 0.00 0.00 718.02 718.02 0.00 0.00 0.00 16,010.62 12.91 12.91 0.00
1/21/2020 0.00 439.00 439.00 0.00 0.00 0.00 0.00 870.75 870.75 0.00 0.00 0.00 16,881.36 12.80 12.99 0.00
1/22/2020 0.00 -887.00 0.00 887.00 0.00 0.00 0.00 -1,759.34 0.00 1,759.34 0.00 0.00 15,122.02 12.76 13.04 0.12
1/23/2020 0.00 963.00 963.00 0.00 0.00 0.00 0.00 1,910.09 1,910.09 0.00 0.00 0.00 17,032.11 12.81 12.85 0.22
1/24/2020 0.00 943.00 943.00 0.00 0.00 0.00 0.00 1,870.42 1,870.42 0.00 0.00 0.00 18,902.52 12.82 12.85 0.11
1/25/2020 0.00 616.00 616.00 0.00 0.00 0.00 0.00 1,221.82 1,221.82 0.00 0.00 0.00 20,124.34 12.81 12.91 0.00
1/26/2020 0.00 798.00 798.00 0.00 0.00 0.00 0.00 1,582.81 1,582.81 0.00 0.00 0.00 21,707.16 12.79 12.82 0.00
1/27/2020 0.00 837.00 837.00 0.00 0.00 0.00 0.00 1,660.17 1,660.17 0.00 0.00 0.00 23,367.33 12.79 12.85 0.01
1/28/2020 0.00 1,046.00 1,046.00 0.00 0.00 0.00 0.00 2,074.72 2,074.72 0.00 0.00 0.00 25,442.04 12.78 12.72 0.00
1/29/2020 0.00 886.00 886.00 0.00 0.00 0.00 0.00 1,757.36 1,757.36 0.00 0.00 0.00 27,199.40 12.77 12.85 0.58
1/30/2020 0.00 240.00 240.00 0.00 0.00 0.00 0.00 476.03 476.03 0.00 0.00 0.00 27,675.44 12.83 12.92 0.00
1/31/2020 0.00 558.00 558.00 0.00 0.00 0.00 0.00 1,106.78 1,106.78 0.00 0.00 0.00 28,782.21 12.84 12.91 0.08
2/1/2020 0.00 -335.00 0.00 335.00 0.00 0.00 0.00 -664.46 0.00 664.46 0.00 0.00 28,117.75 12.87 13.10 0.54
2/2/2020 0.00 148.00 148.00 0.00 0.00 0.00 0.00 293.55 293.55 0.00 0.00 0.00 28,411.30 12.86 13.06 0.00
2/3/2020 0.00 936.00 936.00 0.00 0.00 0.00 0.00 1,856.53 1,856.53 0.00 0.00 0.00 30,267.84 12.90 12.92 0.00
2/4/2020 0.00 924.00 924.00 0.00 0.00 0.00 0.00 1,832.73 1,832.73 0.00 0.00 0.00 32,100.57 12.90 12.93 0.00
2/5/2020 0.00 946.00 946.00 0.00 0.00 0.00 0.00 1,876.37 1,876.37 0.00 0.00 0.00 33,976.94 12.91 12.90 0.00
2/6/2020 0.00 352.00 352.00 0.00 0.00 0.00 0.00 698.18 698.18 0.00 0.00 0.00 34,675.12 12.92 13.06 0.00
2/7/2020 0.00 150.00 150.00 0.00 0.00 0.00 0.00 297.52 297.52 0.00 0.00 0.00 34,972.64 12.93 13.16 0.47
2/8/2020 0.00 670.00 670.00 0.00 0.00 0.00 0.00 1,328.93 1,328.93 0.00 0.00 0.00 36,301.57 12.92 12.89 0.00
2/9/2020 0.00 951.00 951.00 0.00 0.00 0.00 0.00 1,886.29 1,886.29 0.00 0.00 0.00 38,187.86 12.94 12.75 0.00
2/10/2020 0.00 244.00 244.00 0.00 0.00 0.00 0.00 483.97 483.97 0.00 0.00 0.00 38,671.82 12.94 12.87 0.00
2/11/2020 0.00 480.00 480.00 0.00 0.00 0.00 0.00 952.07 952.07 0.00 0.00 0.00 39,623.89 12.94 12.94 0.00
2/12/2020 0.00 695.00 695.00 0.00 0.00 0.00 0.00 1,378.52 1,378.52 0.00 0.00 0.00 41,002.41 12.94 12.94 0.00
2/13/2020 0.00 338.00 338.00 0.00 0.00 0.00 0.00 670.41 670.41 0.00 0.00 0.00 41,672.82 12.93 12.94 0.33
2/14/2020 0.00 665.00 665.00 0.00 0.00 0.00 0.00 1,319.01 1,319.01 0.00 0.00 0.00 42,991.83 12.92 13.03 0.02
2/15/2020 0.00 578.00 578.00 0.00 0.00 0.00 0.00 1,146.45 1,146.45 0.00 0.00 0.00 44,138.28 12.90 13.03 0.02
2/16/2020 0.00 267.00 267.00 0.00 0.00 0.00 0.00 529.59 529.59 0.00 0.00 0.00 44,667.87 12.91 13.03 0.08
2/17/2020 0.00 386.00 386.00 0.00 0.00 0.00 0.00 765.62 765.62 0.00 0.00 0.00 45,433.49 12.92 13.03 0.00
2/18/2020 0.00 450.00 450.00 0.00 0.00 0.00 0.00 892.56 892.56 0.00 0.00 0.00 46,326.06 12.91 12.88 0.00
2/19/2020 0.00 314.00 314.00 0.00 0.00 0.00 0.00 622.81 622.81 0.00 0.00 0.00 46,948.87 12.90 12.89 0.00
2/20/2020 0.00 181.00 181.00 0.00 0.00 0.00 0.00 359.01 359.01 0.00 0.00 0.00 47,307.88 12.88 13.02 0.00
2/21/2020 0.00 504.00 504.00 0.00 0.00 0.00 0.00 999.67 999.67 0.00 0.00 0.00 48,307.55 12.78 12.80 0.04
2/22/2020 0.00 637.00 637.00 0.00 0.00 0.00 0.00 1,263.47 1,263.47 0.00 0.00 0.00 49,571.02 12.75 12.64 0.04
2/23/2020 0.00 511.00 511.00 0.00 0.00 0.00 0.00 1,013.56 1,013.56 0.00 0.00 0.00 50,584.58 12.78 12.67 0.03
2/24/2020 0.00 474.00 474.00 0.00 0.00 0.00 0.00 940.17 940.17 0.00 0.00 0.00 51,524.75 12.77 12.73 0.00
2/25/2020 0.00 424.00 424.00 0.00 0.00 0.00 0.00 840.99 840.99 0.00 0.00 0.00 52,365.74 12.75 12.81 0.00
2/26/2020 0.00 271.00 271.00 0.00 0.00 0.00 0.00 537.52 537.52 0.00 0.00 0.00 52,903.26 12.75 12.89 0.11
2/27/2020 0.00 390.00 390.00 0.00 0.00 0.00 0.00 773.56 773.56 0.00 0.00 0.00 53,676.82 12.70 12.89 0.00
2/28/2020 0.00 556.00 556.00 0.00 0.00 0.00 0.00 1,102.81 1,102.81 0.00 0.00 0.00 54,779.63 12.67 12.87 0.00
2/29/2020 0.00 523.00 523.00 0.00 0.00 0.00 0.00 1,037.36 1,037.36 0.00 0.00 0.00 55,816.99 12.64 12.76 0.00
3/1/2020 0.00 710.00 710.00 0.00 0.00 0.00 0.00 1,408.27 1,408.27 0.00 0.00 0.00 57,225.26 12.62 12.57 0.00
3/2/2020 0.00 594.00 594.00 0.00 0.00 0.00 0.00 1,178.18 1,178.18 0.00 0.00 0.00 58,403.44 12.62 12.60 0.00
3/3/2020 0.00 419.00 419.00 0.00 0.00 0.00 0.00 831.08 831.08 0.00 0.00 0.00 59,234.52 12.60 12.63 0.00
3/4/2020 0.00 563.00 563.00 0.00 0.00 0.00 0.00 1,116.70 1,116.70 0.00 0.00 0.00 60,351.21 12.59 12.62 0.00
3/5/2020 0.00 218.00 218.00 0.00 0.00 0.00 0.00 432.40 432.40 0.00 0.00 0.00 60,783.61 12.57 12.72 0.00
3/6/2020 0.00 372.00 372.00 0.00 0.00 0.00 0.00 737.85 737.85 0.00 0.00 0.00 61,521.46 12.53 12.59 0.00
3/7/2020 0.00 485.00 485.00 0.00 0.00 0.00 0.00 961.99 961.99 0.00 0.00 0.00 62,483.45 12.44 12.30 0.00
3/8/2020 0.00 622.00 622.00 0.00 0.00 0.00 0.00 1,233.72 1,233.72 0.00 0.00 0.00 63,717.17 12.46 12.18 0.00
3/9/2020 0.00 514.00 514.00 0.00 0.00 0.00 0.00 1,019.51 1,019.51 0.00 0.00 0.00 64,736.68 12.45 12.12 0.00
3/10/2020 0.00 92.00 92.00 0.00 0.00 0.00 0.00 182.48 182.48 0.00 0.00 0.00 64,919.16 12.42 12.32 0.00
3/11/2020 0.00 340.00 340.00 0.00 0.00 0.00 0.00 674.38 674.38 0.00 0.00 0.00 65,593.54 12.42 12.37 0.00
3/12/2020 0.00 456.00 456.00 0.00 0.00 0.00 0.00 904.46 904.46 0.00 0.00 0.00 66,498.00 12.41 12.37 0.00
3/13/2020 0.00 284.00 284.00 0.00 0.00 0.00 0.00 563.31 563.31 0.00 0.00 0.00 67,061.31 12.40 12.32 0.00
3/14/2020 0.00 389.00 389.00 0.00 0.00 0.00 0.00 771.57 771.57 0.00 0.00 0.00 67,832.88 12.38 12.29 0.00
3/15/2020 0.00 192.00 192.00 0.00 0.00 0.00 0.00 380.83 380.83 0.00 0.00 0.00 68,213.71 12.36 12.32 0.00
3/16/2020 0.00 548.00 548.00 0.00 0.00 0.00 0.00 1,086.94 1,086.94 0.00 0.00 0.00 69,300.65 12.35 12.24 0.00
3/17/2020 0.00 400.00 400.00 0.00 0.00 0.00 0.00 793.39 793.39 0.00 0.00 0.00 70,094.05 12.33 12.20 0.00
3/18/2020 0.00 469.00 469.00 0.00 0.00 0.00 0.00 930.25 930.25 0.00 0.00 0.00 71,024.30 12.30 12.16 0.00
3/19/2020 0.00 374.00 374.00 0.00 0.00 0.00 0.00 741.82 741.82 0.00 0.00 0.00 71,766.12 12.29 12.11 0.00
3/20/2020 0.00 209.00 209.00 0.00 0.00 0.00 0.00 414.55 414.55 0.00 0.00 0.00 72,180.66 12.26 12.11 0.00
3/21/2020 0.00 -84.00 0.00 84.00 0.00 0.00 0.00 -166.61 0.00 166.61 0.00 0.00 72,014.05 12.22 12.14 0.00
3/22/2020 0.00 -235.00 0.00 235.00 0.00 0.00 0.00 -466.12 0.00 466.12 0.00 0.00 71,547.93 12.19 12.14 0.00
3/23/2020 0.00 -638.00 0.00 638.00 0.00 0.00 0.00 -1,265.46 0.00 1,265.46 0.00 0.00 70,282.48 12.17 12.13 0.00
3/24/2020 0.00 -470.00 0.00 470.00 0.00 0.00 0.00 -932.23 0.00 932.23 0.00 0.00 69,350.24 12.12 12.17 0.00
3/25/2020 0.00 -578.00 0.00 578.00 0.00 0.00 0.00 -1,146.45 0.00 1,146.45 0.00 0.00 68,203.79 12.08 12.28 0.00
3/26/2020 0.00 -751.00 0.00 751.00 0.00 0.00 0.00 -1,489.59 0.00 1,489.59 0.00 0.00 66,714.20 12.05 12.02 0.00
3/27/2020 0.00 -493.00 0.00 493.00 0.00 0.00 0.00 -977.85 0.00 977.85 0.00 0.00 65,736.35 12.04 11.92 0.00
3/28/2020 0.00 -511.00 0.00 511.00 0.00 0.00 0.00 -1,013.56 0.00 1,013.56 0.00 0.00 64,722.79 12.00 11.92 0.00
3/29/2020 0.00 -446.00 0.00 446.00 0.00 0.00 0.00 -884.63 0.00 884.63 0.00 0.00 63,838.16 11.95 11.94 0.00
3/30/2020 0.00 -398.00 0.00 398.00 0.00 0.00 0.00 -789.42 0.00 789.42 0.00 0.00 63,048.74 11.91 11.90 0.00
3/31/2020 0.00 -280.00 0.00 280.00 0.00 0.00 0.00 -555.37 0.00 555.37 0.00 0.00 62,493.37 11.86 12.19 0.00
4/1/2020 0.00 -878.00 0.00 878.00 0.00 0.00 0.00 -1,741.49 0.00 1,741.49 0.00 0.00 60,751.88 11.82 11.90 0.12
4/2/2020 0.00 -475.00 0.00 475.00 0.00 0.00 0.00 -942.15 0.00 942.15 0.00 0.00 59,809.72 11.79 11.72 0.00
4/3/2020 0.00 -535.00 0.00 535.00 0.00 0.00 0.00 -1,061.16 0.00 1,061.16 0.00 0.00 58,748.56 11.75 11.68 0.00
4/4/2020 0.00 270.00 270.00 0.00 0.00 0.00 0.00 535.54 535.54 0.00 0.00 0.00 59,284.10 11.71 11.73 0.00
4/5/2020 0.00 -254.00 0.00 254.00 0.00 0.00 0.00 -503.80 0.00 503.80 0.00 0.00 58,780.30 11.67 11.58 0.10
4/6/2020 0.00 64.00 64.00 0.00 0.00 0.00 0.00 126.94 126.94 0.00 0.00 0.00 58,907.24 11.66 11.49 0.28
4/7/2020 0.00 -190.00 0.00 190.00 0.00 0.00 0.00 -376.86 0.00 376.86 0.00 0.00 58,530.38 11.62 11.54 0.00
4/8/2020 0.00 -31.00 0.00 31.00 0.00 0.00 0.00 -61.49 0.00 61.49 0.00 0.00 58,468.89 11.59 11.73 0.00
4/9/2020 0.00 177.00 177.00 0.00 0.00 0.00 0.00 351.08 351.08 0.00 0.00 0.00 58,819.97 11.53 11.84 0.00
4/10/2020 0.00 -153.00 0.00 153.00 0.00 0.00 0.00 -303.47 0.00 303.47 0.00 0.00 58,516.50 11.52 11.63 0.31
4/11/2020 0.00 -34.00 0.00 34.00 0.00 0.00 0.00 -67.44 0.00 67.44 0.00 0.00 58,449.06 11.50 11.31 0.00
4/12/2020 0.00 255.00 255.00 0.00 0.00 0.00 0.00 505.79 505.79 0.00 0.00 0.00 58,954.85 11.50 11.30 0.00
4/13/2020 0.00 518.00 518.00 0.00 0.00 0.00 0.00 1,027.44 1,027.44 0.00 0.00 0.00 59,982.29 11.44 11.53 0.00
4/14/2020 0.00 347.00 347.00 0.00 0.00 0.00 0.00 688.27 688.27 0.00 0.00 0.00 60,670.55 11.42 11.44 0.00
4/15/2020 0.00 349.00 349.00 0.00 0.00 0.00 0.00 692.23 692.23 0.00 0.00 0.00 61,362.79 11.40 11.55 0.00
4/16/2020 0.00 323.00 323.00 0.00 0.00 0.00 0.00 640.66 640.66 0.00 0.00 0.00 62,003.45 11.36 11.19 0.41
4/17/2020 0.00 207.00 207.00 0.00 0.00 0.00 0.00 410.58 410.58 0.00 0.00 0.00 62,414.03 11.36 11.23 0.70
4/18/2020 0.00 -222.00 0.00 222.00 0.00 0.00 0.00 -440.33 0.00 440.33 0.00 0.00 61,973.70 11.39 11.59 0.02
4/19/2020 0.00 -323.00 0.00 323.00 0.00 0.00 0.00 -640.66 0.00 640.66 0.00 0.00 61,333.03 11.40 11.52 0.54
4/20/2020 0.00 -817.00 0.00 817.00 0.00 0.00 0.00 -1,620.50 0.00 1,620.50 0.00 0.00 59,712.53 11.38 11.86 0.87
4/21/2020 0.00 -1,205.00 0.00 1,205.00 0.00 0.00 0.00 -2,390.09 0.00 2,390.09 0.00 0.00 57,322.45 11.38 11.57 0.00
4/22/2020 0.00 -648.00 0.00 648.00 0.00 0.00 0.00 -1,285.29 0.00 1,285.29 0.00 0.00 56,037.15 11.36 11.31 0.00
4/23/2020 0.00 -112.00 0.00 112.00 0.00 0.00 0.00 -222.15 0.00 222.15 0.00 0.00 55,815.00 11.38 11.31 0.00
4/24/2020 0.00 -83.00 0.00 83.00 0.00 0.00 0.00 -164.63 0.00 164.63 0.00 0.00 55,650.38 11.32 11.44 0.12
4/25/2020 0.00 -477.00 0.00 477.00 0.00 0.00 0.00 -946.12 0.00 946.12 0.00 0.00 54,704.26 11.37 11.46 0.44
4/26/2020 0.00 -383.00 0.00 383.00 0.00 0.00 0.00 -759.67 0.00 759.67 0.00 0.00 53,944.59 11.43 11.63 0.30
4/27/2020 0.00 -824.00 0.00 824.00 0.00 0.00 0.00 -1,634.38 0.00 1,634.38 0.00 0.00 52,310.20 11.45 11.42 0.01
4/28/2020 0.00 -321.00 0.00 321.00 0.00 0.00 0.00 -636.70 0.00 636.70 0.00 0.00 51,673.51 11.45 11.29 0.00
4/29/2020 0.00 -45.00 0.00 45.00 0.00 0.00 0.00 -89.26 0.00 89.26 0.00 0.00 51,584.25 11.44 11.34 0.00
4/30/2020 0.00 -22.00 0.00 22.00 0.00 0.00 0.00 -43.64 0.00 43.64 0.00 0.00 51,540.61 11.42 11.64 0.64
5/1/2020 0.00 -696.00 0.00 696.00 0.00 0.00 0.00 -1,380.50 0.00 1,380.50 0.00 0.00 50,160.12 11.41 11.48 0.00
5/2/2020 0.00 -572.00 0.00 572.00 0.00 0.00 0.00 -1,134.55 0.00 1,134.55 0.00 0.00 49,025.57 11.40 11.36 0.00
5/3/2020 0.00 -881.00 0.00 881.00 0.00 0.00 0.00 -1,747.44 0.00 1,747.44 0.00 0.00 47,278.13 11.39 11.34 0.00
5/4/2020 0.00 -337.00 0.00 337.00 0.00 0.00 0.00 -668.43 0.00 668.43 0.00 0.00 46,609.69 11.37 11.38 0.00
5/5/2020 0.00 46.00 46.00 0.00 0.00 0.00 0.00 91.24 91.24 0.00 0.00 0.00 46,700.93 11.33 11.42 0.00
5/6/2020 0.00 148.00 148.00 0.00 0.00 0.00 0.00 293.55 293.55 0.00 0.00 0.00 46,994.49 11.28 11.51 0.00
5/7/2020 0.00 -368.00 0.00 368.00 0.00 0.00 0.00 -729.92 0.00 729.92 0.00 0.00 46,264.57 11.24 11.15 0.00
5/8/2020 0.00 274.00 274.00 0.00 0.00 0.00 0.00 543.47 543.47 0.00 0.00 0.00 46,808.04 11.23 11.21 0.00
5/9/2020 0.00 -516.00 0.00 516.00 0.00 0.00 0.00 -1,023.47 0.00 1,023.47 0.00 0.00 45,784.57 11.21 11.20 0.00
5/10/2020 0.00 -764.00 0.00 764.00 0.00 0.00 0.00 -1,515.38 0.00 1,515.38 0.00 0.00 44,269.19 11.21 11.17 0.44
5/11/2020 0.00 -595.00 0.00 595.00 0.00 0.00 0.00 -1,180.17 0.00 1,180.17 0.00 0.00 43,089.02 11.18 11.06 0.00
5/12/2020 0.00 -327.00 0.00 327.00 0.00 0.00 0.00 -648.60 0.00 648.60 0.00 0.00 42,440.43 11.17 10.88 0.00
5/13/2020 0.00 -208.00 0.00 208.00 0.00 0.00 0.00 -412.56 0.00 412.56 0.00 0.00 42,027.87 11.15 10.62 0.00
5/14/2020 0.00 -58.00 0.00 58.00 0.00 0.00 0.00 -115.04 0.00 115.04 0.00 0.00 41,912.82 11.10 10.59 0.00
5/15/2020 0.00 146.00 146.00 0.00 0.00 0.00 0.00 289.59 289.59 0.00 0.00 0.00 42,202.41 11.04 10.79 0.45
5/16/2020 0.00 -458.00 0.00 458.00 0.00 0.00 0.00 -908.43 0.00 908.43 0.00 0.00 41,293.98 11.01 11.09 0.48
5/17/2020 0.00 -981.00 0.00 981.00 0.00 0.00 0.00 -1,945.79 0.00 1,945.79 0.00 0.00 39,348.19 11.00 11.09 0.01
5/18/2020 0.00 -884.00 0.00 884.00 0.00 0.00 0.00 -1,753.39 0.00 1,753.39 0.00 0.00 37,594.80 11.03 11.14 1.99
5/19/2020 0.00 -486.00 0.00 486.00 0.00 0.00 0.00 -963.97 0.00 963.97 0.00 0.00 36,630.83 11.12 11.40 0.34
5/20/2020 0.00 -968.00 0.00 968.00 0.00 0.00 0.00 -1,920.00 0.00 1,920.00 0.00 0.00 34,710.82 11.12 11.28 0.00
5/21/2020 0.00 -685.00 0.00 685.00 0.00 0.00 0.00 -1,358.68 0.00 1,358.68 0.00 0.00 33,352.14 11.12 11.21 0.02
5/22/2020 0.00 -1,027.00 0.00 1,027.00 0.00 0.00 0.00 -2,037.03 0.00 2,037.03 0.00 0.00 31,315.11 11.14 11.08 0.00
5/23/2020 0.00 -1,157.00 0.00 1,157.00 0.00 0.00 0.00 -2,294.88 0.00 2,294.88 0.00 0.00 29,020.23 11.15 10.98 0.01
5/24/2020 0.00 -983.00 0.00 983.00 0.00 0.00 0.00 -1,949.76 0.00 1,949.76 0.00 0.00 27,070.48 11.16 11.11 0.97
5/25/2020 0.00 -1,073.00 0.00 1,073.00 0.00 0.00 0.00 -2,128.27 0.00 2,128.27 0.00 0.00 24,942.21 11.27 11.37 0.28
5/26/2020 0.00 -1,250.00 0.00 1,250.00 0.00 0.00 0.00 -2,479.34 0.00 2,479.34 0.00 0.00 22,462.86 11.32 11.70 0.00
5/27/2020 0.00 -1,443.00 0.00 1,443.00 0.00 0.00 0.00 -2,862.16 0.00 2,862.16 0.00 0.00 19,600.71 11.36 11.66 0.10
5/28/2020 0.00 -715.00 0.00 715.00 0.00 0.00 0.00 -1,418.19 0.00 1,418.19 0.00 0.00 18,182.52 11.39 11.54 1.19
5/29/2020 0.00 -1,029.00 0.00 1,029.00 0.00 0.00 0.00 -2,041.00 0.00 2,041.00 0.00 0.00 16,141.52 11.42 11.61 0.01
5/30/2020 0.00 -869.00 0.00 869.00 0.00 0.00 0.00 -1,723.64 0.00 1,723.64 0.00 0.00 14,417.88 11.45 11.61 0.11
5/31/2020 0.00 -896.00 0.00 896.00 0.00 0.00 0.00 -1,777.19 0.00 1,777.19 0.00 0.00 12,640.69 11.46 11.60 0.00
6/1/2020 0.00 -854.00 0.00 854.00 0.00 0.00 0.00 -1,693.89 0.00 1,693.89 0.00 0.00 10,946.80 11.47 11.49 0.00
6/2/2020 0.00 -957.00 0.00 957.00 0.00 0.00 0.00 -1,898.19 0.00 1,898.19 0.00 0.00 9,048.62 11.49 11.55 1.06
6/3/2020 0.00 0.00 0.00 0.00 0.00 0.00 0.00 0.00 0.00 0.00 0.00 0.00 9,048.62 11.58 12.48 1.36
6/4/2020 0.00 0.00 0.00 0.00 0.00 0.00 0.00 0.00 0.00 0.00 0.00 0.00 9,048.62 11.70 12.59 0.24
6/5/2020 0.00 -2,944.00 0.00 2,944.00 0.00 0.00 0.00 -5,839.35 0.00 5,839.35 0.00 0.00 3,209.26 11.82 12.77 2.28
6/6/2020 0.00 -6,552.00 0.00 6,552.00 0.00 0.00 0.00 -12,995.73 0.00 12,995.73 0.00 0.00 -9,786.47 11.96 14.12 0.00
6/7/2020 0.00 -6,040.00 0.00 6,040.00 0.00 0.00 0.00 -11,980.19 0.00 11,980.19 0.00 0.00 -21,766.66 12.00 13.72 0.00
6/8/2020 0.00 -3,660.00 0.00 3,660.00 0.00 0.00 0.00 -7,259.52 0.00 7,259.52 0.00 0.00 -29,026.18 12.06 12.88 0.00
6/9/2020 0.00 -2,087.00 0.00 2,087.00 0.00 0.00 0.00 -4,139.51 0.00 4,139.51 0.00 0.00 -33,165.70 12.11 12.39 0.00
6/10/2020 0.00 -1,304.00 0.00 1,304.00 0.00 0.00 0.00 -2,586.45 0.00 2,586.45 0.00 0.00 -35,752.15 12.15 12.30 0.00
6/11/2020 0.00 -1,110.00 0.00 1,110.00 0.00 0.00 0.00 -2,201.66 0.00 2,201.66 0.00 0.00 -37,953.81 12.19 12.19 0.00
6/12/2020 0.00 -821.00 0.00 821.00 0.00 0.00 0.00 -1,628.43 0.00 1,628.43 0.00 0.00 -39,582.24 12.21 12.11 0.00
6/13/2020 0.00 -845.00 0.00 845.00 0.00 0.00 0.00 -1,676.04 0.00 1,676.04 0.00 0.00 -41,258.28 12.21 12.14 0.00
6/14/2020 0.00 -681.00 0.00 681.00 0.00 0.00 0.00 -1,350.75 0.00 1,350.75 0.00 0.00 -42,609.02 12.21 12.20 0.01
6/15/2020 0.00 -759.00 0.00 759.00 0.00 0.00 0.00 -1,505.46 0.00 1,505.46 0.00 0.00 -44,114.48 12.20 12.16 0.00
6/16/2020 0.00 -1,131.00 0.00 1,131.00 0.00 0.00 0.00 -2,243.31 0.00 2,243.31 0.00 0.00 -46,357.79 12.19 12.12 0.00
6/17/2020 0.00 -692.00 0.00 692.00 0.00 0.00 0.00 -1,372.57 0.00 1,372.57 0.00 0.00 -47,730.36 12.20 12.10 0.00
6/18/2020 0.00 -698.00 0.00 698.00 0.00 0.00 0.00 -1,384.47 0.00 1,384.47 0.00 0.00 -49,114.82 12.19 12.24 1.40
6/19/2020 0.00 0.00 0.00 0.00 0.00 0.00 0.00 0.00 0.00 0.00 0.00 0.00 -49,114.82 12.26 12.37 0.84
6/20/2020 0.00 0.00 0.00 0.00 0.00 0.00 0.00 0.00 0.00 0.00 0.00 0.00 -49,114.82 12.32 12.48 0.01
6/21/2020 0.00 0.00 0.00 0.00 0.00 0.00 0.00 0.00 0.00 0.00 0.00 0.00 -49,114.82 12.34 12.47 0.16
6/22/2020 0.00 0.00 0.00 0.00 0.00 0.00 0.00 0.00 0.00 0.00 0.00 0.00 -49,114.82 12.35 12.46 0.19
6/23/2020 0.00 0.00 0.00 0.00 0.00 0.00 0.00 0.00 0.00 0.00 0.00 0.00 -49,114.82 12.36 12.50 0.32
6/24/2020 0.00 4,776.00 4,776.00 0.00 0.00 0.00 0.00 9,473.08 9,473.08 0.00 0.00 0.00 -39,641.74 12.38 12.46 0.00
6/25/2020 0.00 628.00 628.00 0.00 0.00 0.00 0.00 1,245.62 1,245.62 0.00 0.00 0.00 -38,396.12 12.39 12.39 0.00
6/26/2020 0.00 797.00 797.00 0.00 0.00 0.00 0.00 1,580.83 1,580.83 0.00 0.00 0.00 -36,815.29 12.38 12.31 0.00
6/27/2020 0.00 791.00 791.00 0.00 0.00 0.00 0.00 1,568.93 1,568.93 0.00 0.00 0.00 -35,246.36 12.35 12.33 0.00
6/28/2020 0.00 744.00 744.00 0.00 0.00 0.00 0.00 1,475.71 1,475.71 0.00 0.00 0.00 -33,770.66 12.35 12.38 0.00
6/29/2020 0.00 700.00 700.00 0.00 0.00 0.00 0.00 1,388.43 1,388.43 0.00 0.00 0.00 -32,382.22 12.34 12.41 0.00
6/30/2020 0.00 620.00 620.00 0.00 0.00 0.00 0.00 1,229.75 1,229.75 0.00 0.00 0.00 -31,152.47 12.31 12.42 0.00
7/1/2020 0.00 616.00 616.00 0.00 0.00 0.00 0.00 1,221.82 1,221.82 0.00 0.00 0.00 -29,930.65 12.30 12.38 0.00
7/2/2020 0.00 562.00 562.00 0.00 0.00 0.00 0.00 1,114.71 1,114.71 0.00 0.00 0.00 -28,815.93 12.30 12.42 0.00
7/3/2020 0.00 484.00 484.00 0.00 0.00 0.00 0.00 960.00 960.00 0.00 0.00 0.00 -27,855.93 12.28 12.43 0.00
7/4/2020 0.00 476.00 476.00 0.00 0.00 0.00 0.00 944.13 944.13 0.00 0.00 0.00 -26,911.80 12.27 12.39 0.14
7/5/2020 0.00 541.00 541.00 0.00 0.00 0.00 0.00 1,073.06 1,073.06 0.00 0.00 0.00 -25,838.74 12.29 12.41 1.09
7/6/2020 0.00 292.00 292.00 0.00 0.00 0.00 0.00 579.17 579.17 0.00 0.00 0.00 -25,259.56 12.32 12.56 2.61
7/7/2020 0.00 0.00 0.00 0.00 0.00 0.00 0.00 0.00 0.00 0.00 0.00 0.00 -25,259.56 12.37 12.61 0.33
7/8/2020 0.00 0.00 0.00 0.00 0.00 0.00 0.00 0.00 0.00 0.00 0.00 0.00 -25,259.56 12.43 12.66 0.00
7/9/2020 0.00 -398.00 0.00 398.00 0.00 0.00 0.00 -789.42 0.00 789.42 0.00 0.00 -26,048.99 12.45 12.67 0.47
7/10/2020 0.00 -390.00 0.00 390.00 0.00 0.00 0.00 -773.56 0.00 773.56 0.00 0.00 -26,822.54 12.45 12.69 0.03
7/11/2020 0.00 -241.00 0.00 241.00 0.00 0.00 0.00 -478.02 0.00 478.02 0.00 0.00 -27,300.56 12.50 12.74 0.00
7/12/2020 0.00 -84.00 0.00 84.00 0.00 0.00 0.00 -166.61 0.00 166.61 0.00 0.00 -27,467.17 12.54 12.78 0.00
7/13/2020 0.00 -52.00 0.00 52.00 0.00 0.00 0.00 -103.14 0.00 103.14 0.00 0.00 -27,570.31 12.55 12.75 0.00
7/14/2020 0.00 -276.00 0.00 276.00 0.00 0.00 0.00 -547.44 0.00 547.44 0.00 0.00 -28,117.75 12.56 12.68 0.00
7/15/2020 0.00 -176.00 0.00 176.00 0.00 0.00 0.00 -349.09 0.00 349.09 0.00 0.00 -28,466.84 12.56 12.68 0.20
7/16/2020 111.00 0.00 0.00 0.00 111.00 0.00 220.17 0.00 0.00 0.00 220.17 0.00 -28,466.84 12.61 12.58 0.01
7/17/2020 112.00 0.00 0.00 0.00 112.00 0.00 222.15 0.00 0.00 0.00 222.15 0.00 -28,466.84 12.64 12.58 0.30
7/18/2020 0.00 0.00 0.00 0.00 0.00 0.00 0.00 0.00 0.00 0.00 0.00 0.00 -28,466.84 12.66 12.63 0.23
7/19/2020 0.00 0.00 0.00 0.00 0.00 0.00 0.00 0.00 0.00 0.00 0.00 0.00 -28,466.84 12.69 12.68 0.16
7/20/2020 0.00 0.00 0.00 0.00 0.00 0.00 0.00 0.00 0.00 0.00 0.00 0.00 -28,466.84 12.74 12.69 0.11
7/21/2020 0.00 0.00 0.00 0.00 0.00 0.00 0.00 0.00 0.00 0.00 0.00 0.00 -28,466.84 12.77 12.71 0.03
7/22/2020 0.00 1,754.00 1,754.00 0.00 0.00 0.00 0.00 3,479.02 3,479.02 0.00 0.00 0.00 -24,987.83 12.81 12.82 0.71
7/23/2020 0.00 2,325.00 2,325.00 0.00 0.00 0.00 0.00 4,611.58 4,611.58 0.00 0.00 0.00 -20,376.25 12.86 12.86 0.08
7/24/2020 0.00 2,232.00 2,232.00 0.00 0.00 0.00 0.00 4,427.12 4,427.12 0.00 0.00 0.00 -15,949.13 12.88 12.79 0.03
7/25/2020 0.00 1,971.00 1,971.00 0.00 0.00 0.00 0.00 3,909.43 3,909.43 0.00 0.00 0.00 -12,039.70 12.91 12.82 0.01
7/26/2020 0.00 1,723.00 1,723.00 0.00 0.00 0.00 0.00 3,417.53 3,417.53 0.00 0.00 0.00 -8,622.17 12.94 13.06 1.73
7/27/2020 0.00 1,940.00 1,940.00 0.00 0.00 0.00 0.00 3,847.94 3,847.94 0.00 0.00 0.00 -4,774.23 13.03 13.21 1.06
7/28/2020 0.00 2,102.00 2,102.00 0.00 0.00 0.00 0.00 4,169.27 4,169.27 0.00 0.00 0.00 -604.96 13.13 13.29 0.00
7/29/2020 0.00 2,510.00 2,510.00 0.00 0.00 0.00 0.00 4,978.52 4,978.52 0.00 0.00 0.00 4,373.56 13.17 13.25 0.00
7/30/2020 0.00 2,337.00 2,337.00 0.00 0.00 0.00 0.00 4,635.38 4,635.38 0.00 0.00 0.00 9,008.95 13.22 13.24 0.00
7/31/2020 26.00 1,449.00 1,449.00 0.00 0.00 26.00 51.57 2,874.06 2,874.06 0.00 0.00 51.57 11,883.00 13.25 13.29 0.00
8/1/2020 303.00 0.00 0.00 0.00 303.00 0.00 600.99 0.00 0.00 0.00 600.99 0.00 11,883.00 13.27 13.20 1.54
8/2/2020 373.00 0.00 0.00 0.00 373.00 0.00 739.84 0.00 0.00 0.00 739.84 0.00 11,883.00 13.27 13.20 0.06
8/3/2020 52.00 0.00 0.00 0.00 52.00 0.00 103.14 0.00 0.00 0.00 103.14 0.00 11,883.00 13.34 13.34 0.00
8/4/2020 0.00 0.00 0.00 0.00 0.00 0.00 0.00 0.00 0.00 0.00 0.00 0.00 11,883.00 13.37 13.55 0.10
8/5/2020 0.00 0.00 0.00 0.00 0.00 0.00 0.00 0.00 0.00 0.00 0.00 0.00 11,883.00 13.42 13.94 1.21
8/6/2020 0.00 480.00 480.00 0.00 0.00 0.00 0.00 952.07 952.07 0.00 0.00 0.00 12,835.07 13.47 14.06 0.50
8/7/2020 0.00 2,783.00 2,783.00 0.00 0.00 0.00 0.00 5,520.01 5,520.01 0.00 0.00 0.00 18,355.08 13.52 13.69 0.00
8/8/2020 0.00 0.00 0.00 0.00 0.00 0.00 0.00 0.00 0.00 0.00 0.00 0.00 18,355.08 13.62 13.67 0.00
8/9/2020 0.00 0.00 0.00 0.00 0.00 0.00 0.00 0.00 0.00 0.00 0.00 0.00 18,355.08 13.68 13.67 0.24
8/10/2020 0.00 0.00 0.00 0.00 0.00 0.00 0.00 0.00 0.00 0.00 0.00 0.00 18,355.08 13.71 13.69 0.00
8/11/2020 0.00 3,159.00 3,159.00 0.00 0.00 0.00 0.00 6,265.80 6,265.80 0.00 0.00 0.00 24,620.88 13.75 13.75 0.00
8/12/2020 0.00 3,300.00 3,300.00 0.00 0.00 0.00 0.00 6,545.47 6,545.47 0.00 0.00 0.00 31,166.35 13.78 13.77 0.00
8/13/2020 0.00 3,380.00 3,380.00 0.00 0.00 0.00 0.00 6,704.15 6,704.15 0.00 0.00 0.00 37,870.50 13.80 13.74 0.34
8/14/2020 0.00 2,049.00 2,049.00 0.00 0.00 0.00 0.00 4,064.14 4,064.14 0.00 0.00 0.00 41,934.64 13.82 13.78 0.00
8/15/2020 0.00 -220.00 0.00 220.00 0.00 0.00 0.00 -436.36 0.00 436.36 0.00 0.00 41,498.28 13.82 13.88 0.00
8/16/2020 0.00 -1,584.00 0.00 1,584.00 0.00 0.00 0.00 -3,141.83 0.00 3,141.83 0.00 0.00 38,356.45 13.83 13.90 0.00
8/17/2020 0.00 -2,034.00 0.00 2,034.00 0.00 0.00 0.00 -4,034.39 0.00 4,034.39 0.00 0.00 34,322.06 13.86 13.92 0.05
8/18/2020 0.00 -1,999.00 0.00 1,999.00 0.00 0.00 0.00 -3,964.97 0.00 3,964.97 0.00 0.00 30,357.09 13.89 13.93 0.07
8/19/2020 0.00 -1,614.00 0.00 1,614.00 0.00 0.00 0.00 -3,201.33 0.00 3,201.33 0.00 0.00 27,155.76 13.94 14.02 0.02
8/20/2020 0.00 -111.00 0.00 111.00 0.00 0.00 0.00 -220.17 0.00 220.17 0.00 0.00 26,935.60 13.98 14.02 0.15
8/21/2020 369.00 224.00 224.00 0.00 145.00 224.00 731.90 444.30 444.30 0.00 287.60 444.30 27,379.90 14.05 13.93 0.12
8/22/2020 635.00 0.00 0.00 0.00 635.00 0.00 1,259.51 0.00 0.00 0.00 1,259.51 0.00 27,379.90 14.10 13.83 0.02
8/23/2020 227.00 0.00 0.00 0.00 227.00 0.00 450.25 0.00 0.00 0.00 450.25 0.00 27,379.90 14.12 13.75 0.20
8/24/2020 467.00 0.00 0.00 0.00 467.00 0.00 926.28 0.00 0.00 0.00 926.28 0.00 27,379.90 14.14 13.69 0.00
8/25/2020 302.00 0.00 0.00 0.00 302.00 0.00 599.01 0.00 0.00 0.00 599.01 0.00 27,379.90 14.14 13.60 0.00
8/26/2020 0.00 0.00 0.00 0.00 0.00 0.00 0.00 0.00 0.00 0.00 0.00 0.00 27,379.90 14.16 13.87 0.22
8/27/2020 49.00 0.00 0.00 0.00 49.00 0.00 97.19 0.00 0.00 0.00 97.19 0.00 27,379.90 14.16 14.12 0.00
8/28/2020 435.00 0.00 0.00 0.00 435.00 0.00 862.81 0.00 0.00 0.00 862.81 0.00 27,379.90 14.18 13.97 0.00
8/29/2020 161.00 0.00 0.00 0.00 161.00 0.00 319.34 0.00 0.00 0.00 319.34 0.00 27,379.90 14.21 13.97 0.07
8/30/2020 107.00 0.00 0.00 0.00 107.00 0.00 212.23 0.00 0.00 0.00 212.23 0.00 27,379.90 14.29 13.99 0.08
8/31/2020 162.00 0.00 0.00 0.00 162.00 0.00 321.32 0.00 0.00 0.00 321.32 0.00 27,379.90 14.33 14.03 0.01
9/1/2020 54.00 0.00 0.00 0.00 54.00 0.00 107.11 0.00 0.00 0.00 107.11 0.00 27,379.90 14.37 14.05 0.00
9/2/2020 4.90 0.00 0.00 0.00 4.90 0.00 9.72 0.00 0.00 0.00 9.72 0.00 27,379.90 14.38 13.83 0.00
9/3/2020 0.00 0.00 0.00 0.00 0.00 0.00 0.00 0.00 0.00 0.00 0.00 0.00 27,379.90 14.39 13.78 0.00
9/4/2020 0.00 0.00 0.00 0.00 0.00 0.00 0.00 0.00 0.00 0.00 0.00 0.00 27,379.90 14.39 13.69 0.00
9/5/2020 0.00 0.00 0.00 0.00 0.00 0.00 0.00 0.00 0.00 0.00 0.00 0.00 27,379.90 14.42 13.65 0.00
9/6/2020 0.00 0.00 0.00 0.00 0.00 0.00 0.00 0.00 0.00 0.00 0.00 0.00 27,379.90 14.49 13.80 0.91
9/7/2020 14.00 0.00 0.00 0.00 14.00 0.00 27.77 0.00 0.00 0.00 27.77 0.00 27,379.90 14.60 14.19 0.04
9/8/2020 412.00 0.00 0.00 0.00 412.00 0.00 817.19 0.00 0.00 0.00 817.19 0.00 27,379.90 14.66 14.58 2.44
9/9/2020 784.00 0.00 0.00 0.00 784.00 0.00 1,555.04 0.00 0.00 0.00 1,555.04 0.00 27,379.90 14.68 14.38 0.01
9/10/2020 638.00 0.00 0.00 0.00 638.00 0.00 1,265.46 0.00 0.00 0.00 1,265.46 0.00 27,379.90 14.74 14.12 0.01
9/11/2020 358.00 0.00 0.00 0.00 358.00 0.00 710.08 0.00 0.00 0.00 710.08 0.00 27,379.90 14.79 14.07 0.37
9/12/2020 330.00 0.00 0.00 0.00 330.00 0.00 654.55 0.00 0.00 0.00 654.55 0.00 27,379.90 14.84 14.16 1.65
9/13/2020 1,200.00 0.00 0.00 0.00 1,200.00 0.00 2,380.17 0.00 0.00 0.00 2,380.17 0.00 27,379.90 14.89 14.39 0.06
9/14/2020 1,203.00 0.00 0.00 0.00 1,203.00 0.00 2,386.12 0.00 0.00 0.00 2,386.12 0.00 27,379.90 14.94 14.23 0.00
9/15/2020 586.00 0.00 0.00 0.00 586.00 0.00 1,162.32 0.00 0.00 0.00 1,162.32 0.00 27,379.90 14.99 14.12 0.00
9/16/2020 388.00 0.00 0.00 0.00 388.00 0.00 769.59 0.00 0.00 0.00 769.59 0.00 27,379.90 15.04 14.13 0.00
9/17/2020 391.00 0.00 0.00 0.00 391.00 0.00 775.54 0.00 0.00 0.00 775.54 0.00 27,379.90 15.11 14.33 0.00
9/18/2020 163.00 0.00 0.00 0.00 163.00 0.00 323.31 0.00 0.00 0.00 323.31 0.00 27,379.90 15.14 14.24 0.00
9/19/2020 0.00 0.00 0.00 0.00 0.00 0.00 0.00 0.00 0.00 0.00 0.00 0.00 27,379.90 15.16 14.13 0.01
9/20/2020 0.00 0.00 0.00 0.00 0.00 0.00 0.00 0.00 0.00 0.00 0.00 0.00 27,379.90 15.17 14.02 0.07
9/21/2020 0.00 0.00 0.00 0.00 0.00 0.00 0.00 0.00 0.00 0.00 0.00 0.00 27,379.90 15.18 14.54 0.15
9/22/2020 467.00 0.00 0.00 0.00 467.00 0.00 926.28 0.00 0.00 0.00 926.28 0.00 27,379.90 15.21 14.41 0.00
9/23/2020 452.00 0.00 0.00 0.00 452.00 0.00 896.53 0.00 0.00 0.00 896.53 0.00 27,379.90 15.23 14.08 0.00
9/24/2020 129.00 0.00 0.00 0.00 129.00 0.00 255.87 0.00 0.00 0.00 255.87 0.00 27,379.90 15.26 14.13 0.55
9/25/2020 315.00 0.00 0.00 0.00 315.00 0.00 624.79 0.00 0.00 0.00 624.79 0.00 27,379.90 15.32 14.32 0.01
9/26/2020 0.00 0.00 0.00 0.00 0.00 0.00 0.00 0.00 0.00 0.00 0.00 0.00 27,379.90 15.32 14.32 0.00
  0.00 0.00 0.00 0.00 0.00 0.00 0.00 0.00 0.00 0.00 0.00 0.00 #N/A #N/A 14.32 0.00
  0.00 0.00 0.00 0.00 0.00 0.00 0.00 0.00 0.00 0.00 0.00 0.00 #N/A #N/A 14.32 0.00
  0.00 0.00 0.00 0.00 0.00 0.00 0.00 0.00 0.00 0.00 0.00 0.00 #N/A #N/A 14.32 0.00
  0.00 0.00 0.00 0.00 0.00 0.00 0.00 0.00 0.00 0.00 0.00 0.00 #N/A #N/A 14.32 0.00
  0.00 0.00 0.00 0.00 0.00 0.00 0.00 0.00 0.00 0.00 0.00 0.00 #N/A #N/A 14.32 0.00
  0.00 0.00 0.00 0.00 0.00 0.00 0.00 0.00 0.00 0.00 0.00 0.00 #N/A #N/A 14.32 0.00
  0.00 0.00 0.00 0.00 0.00 0.00 0.00 0.00 0.00 0.00 0.00 0.00 #N/A #N/A 14.32 0.00
  0.00 0.00 0.00 0.00 0.00 0.00 0.00 0.00 0.00 0.00 0.00 0.00 #N/A #N/A 14.32 0.00
  0.00 0.00 0.00 0.00 0.00 0.00 0.00 0.00 0.00 0.00 0.00 0.00 #N/A #N/A 14.32 0.00
  0.00 0.00 0.00 0.00 0.00 0.00 0.00 0.00 0.00 0.00 0.00 0.00 #N/A #N/A 14.32 0.00
  0.00 0.00 0.00 0.00 0.00 0.00 0.00 0.00 0.00 0.00 0.00 0.00 #N/A #N/A 14.32 0.00
  0.00 0.00 0.00 0.00 0.00 0.00 0.00 0.00 0.00 0.00 0.00 0.00 #N/A #N/A 14.32 0.00
  0.00 0.00 0.00 0.00 0.00 0.00 0.00 0.00 0.00 0.00 0.00 0.00 #N/A #N/A 14.32 0.00
  0.00 0.00 0.00 0.00 0.00 0.00 0.00 0.00 0.00 0.00 0.00 0.00 #N/A #N/A 14.32 0.00
  0.00 0.00 0.00 0.00 0.00 0.00 0.00 0.00 0.00 0.00 0.00 0.00 #N/A #N/A 14.32 0.00
  0.00 0.00 0.00 0.00 0.00 0.00 0.00 0.00 0.00 0.00 0.00 0.00 #N/A #N/A 14.32 0.00
  0.00 0.00 0.00 0.00 0.00 0.00 0.00 0.00 0.00 0.00 0.00 0.00 #N/A #N/A 14.32 0.00
  0.00 0.00 0.00 0.00 0.00 0.00 0.00 0.00 0.00 0.00 0.00 0.00 #N/A #N/A 14.32 0.00
  0.00 0.00 0.00 0.00 0.00 0.00 0.00 0.00 0.00 0.00 0.00 0.00 #N/A #N/A 14.32 0.00
  0.00 0.00 0.00 0.00 0.00 0.00 0.00 0.00 0.00 0.00 0.00 0.00 #N/A #N/A 14.32 0.00
  0.00 0.00 0.00 0.00 0.00 0.00 0.00 0.00 0.00 0.00 0.00 0.00 #N/A #N/A 14.32 0.00
  0.00 0.00 0.00 0.00 0.00 0.00 0.00 0.00 0.00 0.00 0.00 0.00 #N/A #N/A 14.32 0.00
  0.00 0.00 0.00 0.00 0.00 0.00 0.00 0.00 0.00 0.00 0.00 0.00 #N/A #N/A 14.32 0.00
  0.00 0.00 0.00 0.00 0.00 0.00 0.00 0.00 0.00 0.00 0.00 0.00 #N/A #N/A 14.32 0.00
  0.00 0.00 0.00 0.00 0.00 0.00 0.00 0.00 0.00 0.00 0.00 0.00 #N/A #N/A 14.32 0.00
  0.00 0.00 0.00 0.00 0.00 0.00 0.00 0.00 0.00 0.00 0.00 0.00 #N/A #N/A 14.32 0.00
  0.00 0.00 0.00 0.00 0.00 0.00 0.00 0.00 0.00 0.00 0.00 0.00 #N/A #N/A 14.32 0.00
  0.00 0.00 0.00 0.00 0.00 0.00 0.00 0.00 0.00 0.00 0.00 0.00 #N/A #N/A 14.32 0.00
  0.00 0.00 0.00 0.00 0.00 0.00 0.00 0.00 0.00 0.00 0.00 0.00 #N/A #N/A 14.32 0.00
  0.00 0.00 0.00 0.00 0.00 0.00 0.00 0.00 0.00 0.00 0.00 0.00 #N/A #N/A 14.32 0.00
  0.00 0.00 0.00 0.00 0.00 0.00 0.00 0.00 0.00 0.00 0.00 0.00 #N/A #N/A 14.32 0.00
  0.00 0.00 0.00 0.00 0.00 0.00 0.00 0.00 0.00 0.00 0.00 0.00 #N/A #N/A 14.32 0.00
  0.00 0.00 0.00 0.00 0.00 0.00 0.00 0.00 0.00 0.00 0.00 0.00 #N/A #N/A 14.32 0.00
  0.00 0.00 0.00 0.00 0.00 0.00 0.00 0.00 0.00 0.00 0.00 0.00 #N/A #N/A 14.32 0.00
  0.00 0.00 0.00 0.00 0.00 0.00 0.00 0.00 0.00 0.00 0.00 0.00 #N/A #N/A 14.32 0.00
  0.00 0.00 0.00 0.00 0.00 0.00 0.00 0.00 0.00 0.00 0.00 0.00 #N/A #N/A 14.32 0.00
  0.00 0.00 0.00 0.00 0.00 0.00 0.00 0.00 0.00 0.00 0.00 0.00 #N/A #N/A 14.32 0.00
  0.00 0.00 0.00 0.00 0.00 0.00 0.00 0.00 0.00 0.00 0.00 0.00 #N/A #N/A 14.32 0.00
  0.00 0.00 0.00 0.00 0.00 0.00 0.00 0.00 0.00 0.00 0.00 0.00 #N/A #N/A 14.32 0.00
  0.00 0.00 0.00 0.00 0.00 0.00 0.00 0.00 0.00 0.00 0.00 0.00 #N/A #N/A 14.32 0.00
  0.00 0.00 0.00 0.00 0.00 0.00 0.00 0.00 0.00 0.00 0.00 0.00 #N/A #N/A 14.32 0.00
  0.00 0.00 0.00 0.00 0.00 0.00 0.00 0.00 0.00 0.00 0.00 0.00 #N/A #N/A 14.32 0.00
  0.00 0.00 0.00 0.00 0.00 0.00 0.00 0.00 0.00 0.00 0.00 0.00 #N/A #N/A 14.32 0.00
  0.00 0.00 0.00 0.00 0.00 0.00 0.00 0.00 0.00 0.00 0.00 0.00 #N/A #N/A 14.32 0.00
  0.00 0.00 0.00 0.00 0.00 0.00 0.00 0.00 0.00 0.00 0.00 0.00 #N/A #N/A 14.32 0.00
  0.00 0.00 0.00 0.00 0.00 0.00 0.00 0.00 0.00 0.00 0.00 0.00 #N/A #N/A 14.32 0.00
  0.00 0.00 0.00 0.00 0.00 0.00 0.00 0.00 0.00 0.00 0.00 0.00 #N/A #N/A 14.32 0.00
  0.00 0.00 0.00 0.00 0.00 0.00 0.00 0.00 0.00 0.00 0.00 0.00 #N/A #N/A 14.32 0.00
  0.00 0.00 0.00 0.00 0.00 0.00 0.00 0.00 0.00 0.00 0.00 0.00 #N/A #N/A 14.32 0.00
  0.00 0.00 0.00 0.00 0.00 0.00 0.00 0.00 0.00 0.00 0.00 0.00 #N/A #N/A 14.32 0.00
  0.00 0.00 0.00 0.00 0.00 0.00 0.00 0.00 0.00 0.00 0.00 0.00 #N/A #N/A 14.32 0.00
  0.00 0.00 0.00 0.00 0.00 0.00 0.00 0.00 0.00 0.00 0.00 0.00 #N/A #N/A 14.32 0.00
  0.00 0.00 0.00 0.00 0.00 0.00 0.00 0.00 0.00 0.00 0.00 0.00 #N/A #N/A 14.32 0.00
  0.00 0.00 0.00 0.00 0.00 0.00 0.00 0.00 0.00 0.00 0.00 0.00 #N/A #N/A 14.32 0.00
  0.00 0.00 0.00 0.00 0.00 0.00 0.00 0.00 0.00 0.00 0.00 0.00 #N/A #N/A 14.32 0.00
  0.00 0.00 0.00 0.00 0.00 0.00 0.00 0.00 0.00 0.00 0.00 0.00 #N/A #N/A 14.32 0.00
  0.00 0.00 0.00 0.00 0.00 0.00 0.00 0.00 0.00 0.00 0.00 0.00 #N/A #N/A 14.32 0.00
  0.00 0.00 0.00 0.00 0.00 0.00 0.00 0.00 0.00 0.00 0.00 0.00 #N/A #N/A 14.32 0.00
  0.00 0.00 0.00 0.00 0.00 0.00 0.00 0.00 0.00 0.00 0.00 0.00 #N/A #N/A 14.32 0.00
  0.00 0.00 0.00 0.00 0.00 0.00 0.00 0.00 0.00 0.00 0.00 0.00 #N/A #N/A 14.32 0.00
  0.00 0.00 0.00 0.00 0.00 0.00 0.00 0.00 0.00 0.00 0.00 0.00 #N/A #N/A 14.32 0.00
  0.00 0.00 0.00 0.00 0.00 0.00 0.00 0.00 0.00 0.00 0.00 0.00 #N/A #N/A 14.32 0.00
  0.00 0.00 0.00 0.00 0.00 0.00 0.00 0.00 0.00 0.00 0.00 0.00 #N/A #N/A 14.32 0.00
  0.00 0.00 0.00 0.00 0.00 0.00 0.00 0.00 0.00 0.00 0.00 0.00 #N/A #N/A 14.32 0.00
  0.00 0.00 0.00 0.00 0.00 0.00 0.00 0.00 0.00 0.00 0.00 0.00 #N/A #N/A 14.32 0.00
  0.00 0.00 0.00 0.00 0.00 0.00 0.00 0.00 0.00 0.00 0.00 0.00 #N/A #N/A 14.32 0.00
  0.00 0.00 0.00 0.00 0.00 0.00 0.00 0.00 0.00 0.00 0.00 0.00 #N/A #N/A 14.32 0.00
  0.00 0.00 0.00 0.00 0.00 0.00 0.00 0.00 0.00 0.00 0.00 0.00 #N/A #N/A 14.32 0.00
  0.00 0.00 0.00 0.00 0.00 0.00 0.00 0.00 0.00 0.00 0.00 0.00 #N/A #N/A 14.32 0.00
  0.00 0.00 0.00 0.00 0.00 0.00 0.00 0.00 0.00 0.00 0.00 0.00 #N/A #N/A 14.32 0.00
  0.00 0.00 0.00 0.00 0.00 0.00 0.00 0.00 0.00 0.00 0.00 0.00 #N/A #N/A 14.32 0.00
  0.00 0.00 0.00 0.00 0.00 0.00 0.00 0.00 0.00 0.00 0.00 0.00 #N/A #N/A 14.32 0.00
  0.00 0.00 0.00 0.00 0.00 0.00 0.00 0.00 0.00 0.00 0.00 0.00 #N/A #N/A 14.32 0.00
  0.00 0.00 0.00 0.00 0.00 0.00 0.00 0.00 0.00 0.00 0.00 0.00 #N/A #N/A 14.32 0.00
  0.00 0.00 0.00 0.00 0.00 0.00 0.00 0.00 0.00 0.00 0.00 0.00 #N/A #N/A 14.32 0.00
  0.00 0.00 0.00 0.00 0.00 0.00 0.00 0.00 0.00 0.00 0.00 0.00 #N/A #N/A 14.32 0.00
  0.00 0.00 0.00 0.00 0.00 0.00 0.00 0.00 0.00 0.00 0.00 0.00 #N/A #N/A 14.32 0.00
  0.00 0.00 0.00 0.00 0.00 0.00 0.00 0.00 0.00 0.00 0.00 0.00 #N/A #N/A 14.32 0.00
  0.00 0.00 0.00 0.00 0.00 0.00 0.00 0.00 0.00 0.00 0.00 0.00 #N/A #N/A 14.32 0.00
  0.00 0.00 0.00 0.00 0.00 0.00 0.00 0.00 0.00 0.00 0.00 0.00 #N/A #N/A 14.32 0.00
  0.00 0.00 0.00 0.00 0.00 0.00 0.00 0.00 0.00 0.00 0.00 0.00 #N/A #N/A 14.32 0.00
  0.00 0.00 0.00 0.00 0.00 0.00 0.00 0.00 0.00 0.00 0.00 0.00 #N/A #N/A 14.32 0.00
  0.00 0.00 0.00 0.00 0.00 0.00 0.00 0.00 0.00 0.00 0.00 0.00 #N/A #N/A 14.32 0.00
  0.00 0.00 0.00 0.00 0.00 0.00 0.00 0.00 0.00 0.00 0.00 0.00 #N/A #N/A 14.32 0.00
  0.00 0.00 0.00 0.00 0.00 0.00 0.00 0.00 0.00 0.00 0.00 0.00 #N/A #N/A 14.32 0.00
  0.00 0.00 0.00 0.00 0.00 0.00 0.00 0.00 0.00 0.00 0.00 0.00 #N/A #N/A 14.32 0.00
  0.00 0.00 0.00 0.00 0.00 0.00 0.00 0.00 0.00 0.00 0.00 0.00 #N/A #N/A 14.32 0.00
  0.00 0.00 0.00 0.00 0.00 0.00 0.00 0.00 0.00 0.00 0.00 0.00 #N/A #N/A 14.32 0.00
  0.00 0.00 0.00 0.00 0.00 0.00 0.00 0.00 0.00 0.00 0.00 0.00 #N/A #N/A 14.32 0.00
  0.00 0.00 0.00 0.00 0.00 0.00 0.00 0.00 0.00 0.00 0.00 0.00 #N/A #N/A 14.32 0.00
  0.00 0.00 0.00 0.00 0.00 0.00 0.00 0.00 0.00 0.00 0.00 0.00 #N/A #N/A 14.32 0.00
  0.00 0.00 0.00 0.00 0.00 0.00 0.00 0.00 0.00 0.00 0.00 0.00 #N/A #N/A 14.32 0.00
  0.00 0.00 0.00 0.00 0.00 0.00 0.00 0.00 0.00 0.00 0.00 0.00 #N/A #N/A 14.32 0.00
  0.00 0.00 0.00 0.00 0.00 0.00 0.00 0.00 0.00 0.00 0.00 0.00 #N/A #N/A 14.32 0.00
  0.00 0.00 0.00 0.00 0.00 0.00 0.00 0.00 0.00 0.00 0.00 0.00 #N/A #N/A 14.32 0.00
Totals 11,779.90 13,804.00 89,591.00 75,787.00 11,529.90 250.00 23,365.14 27,379.90 177,701.56 150,321.67 22,869.28 495.87        
* Red = Missing data (flows will be set to zero, stages will be set to the stage on the previous day)